PRIVATE WETTERSTATION BILLIGHEIM-ALLFELD                       ZURCK
Wetterdaten: Samstag, 12.11.2016
Datum Zeit Temp. A. Temp. A. min Temp. A. max Feuchte A. Luftdruck Regen Wind Richtung Richtung Sonnenschein ET Solar Taupunkt Windchill Windben Empfang
12.11.2016 00:00 0,8 C 0,8 C 0,9 C 92 % 1023,2 hPa 0,0 l/m 0,0 km/h (0 Bft) N 0 0 min 0,000 mm 0 W/m -0,3 C 0,8 C 0,0 km/h (0 Bft) 100 %
12.11.2016 00:10 0,9 C 0,8 C 0,9 C 92 % 1023,1 hPa 0,0 l/m 0,0 km/h (0 Bft) N 0 0 min 0,000 mm 0 W/m -0,2 C 0,9 C 0,0 km/h (0 Bft) 100 %
12.11.2016 00:20 0,9 C 0,9 C 1,0 C 92 % 1023,2 hPa 0,0 l/m 0,0 km/h (0 Bft) N 0 0 min 0,000 mm 0 W/m -0,2 C 0,9 C 0,0 km/h (0 Bft) 89 %
12.11.2016 00:30 0,9 C 0,9 C 1,0 C 92 % 1023,3 hPa 0,0 l/m 0,0 km/h (0 Bft) N 0 0 min 0,000 mm 0 W/m -0,2 C 0,9 C 0,0 km/h (0 Bft) 100 %
12.11.2016 00:40 0,8 C 0,8 C 0,9 C 92 % 1023,3 hPa 0,0 l/m 0,0 km/h (0 Bft) N 0 0 min 0,000 mm 0 W/m -0,3 C 0,8 C 0,0 km/h (0 Bft) 100 %
12.11.2016 00:50 0,8 C 0,8 C 0,8 C 92 % 1023,5 hPa 0,0 l/m 0,0 km/h (0 Bft) N 0 0 min 0,000 mm 0 W/m -0,3 C 0,8 C 0,0 km/h (0 Bft) 100 %
12.11.2016 01:00 0,8 C 0,7 C 0,8 C 92 % 1023,7 hPa 0,0 l/m 0,0 km/h (0 Bft) N 0 0 min 0,000 mm 0 W/m -0,3 C 0,8 C 0,0 km/h (0 Bft) 100 %
12.11.2016 01:10 0,7 C 0,7 C 0,8 C 92 % 1023,7 hPa 0,0 l/m 0,0 km/h (0 Bft) N 0 0 min 0,000 mm 0 W/m -0,4 C 0,7 C 0,0 km/h (0 Bft) 100 %
12.11.2016 01:20 0,7 C 0,7 C 0,8 C 92 % 1023,7 hPa 0,0 l/m 0,0 km/h (0 Bft) N 0 0 min 0,000 mm 0 W/m -0,4 C 0,7 C 0,0 km/h (0 Bft) 100 %
12.11.2016 01:30 0,8 C 0,8 C 0,8 C 92 % 1023,6 hPa 0,0 l/m 0,0 km/h (0 Bft) N 0 0 min 0,000 mm 0 W/m -0,3 C 0,8 C 0,0 km/h (0 Bft) 100 %
12.11.2016 01:40 0,7 C 0,7 C 0,8 C 92 % 1023,7 hPa 0,0 l/m 0,0 km/h (0 Bft) N 0 0 min 0,000 mm 0 W/m -0,4 C 0,7 C 0,0 km/h (0 Bft) 100 %
12.11.2016 01:50 0,7 C 0,7 C 0,7 C 92 % 1023,7 hPa 0,0 l/m 0,0 km/h (0 Bft) N 0 0 min 0,000 mm 0 W/m -0,4 C 0,7 C 0,0 km/h (0 Bft) 90 %
12.11.2016 02:00 0,7 C 0,7 C 0,7 C 92 % 1023,7 hPa 0,0 l/m 0,0 km/h (0 Bft) N 0 0 min 0,000 mm 0 W/m -0,4 C 0,7 C 0,0 km/h (0 Bft) 100 %
12.11.2016 02:10 0,7 C 0,7 C 0,7 C 92 % 1023,8 hPa 0,0 l/m 0,0 km/h (0 Bft) N 0 0 min 0,000 mm 0 W/m -0,4 C 0,7 C 0,0 km/h (0 Bft) 100 %
12.11.2016 02:20 0,6 C 0,6 C 0,7 C 92 % 1023,7 hPa 0,0 l/m 0,0 km/h (0 Bft) N 0 0 min 0,000 mm 0 W/m -0,5 C 0,6 C 0,0 km/h (0 Bft) 100 %
12.11.2016 02:30 0,5 C 0,5 C 0,6 C 92 % 1023,7 hPa 0,0 l/m 0,0 km/h (0 Bft) N 0 0 min 0,000 mm 0 W/m -0,6 C 0,5 C 0,0 km/h (0 Bft) 100 %
12.11.2016 02:40 0,3 C 0,3 C 0,5 C 92 % 1023,6 hPa 0,0 l/m 0,0 km/h (0 Bft) N 0 0 min 0,000 mm 0 W/m -0,8 C 0,3 C 0,0 km/h (0 Bft) 100 %
12.11.2016 02:50 0,1 C 0,1 C 0,3 C 92 % 1023,7 hPa 0,0 l/m 0,0 km/h (0 Bft) N 0 0 min 0,000 mm 0 W/m -1,0 C 0,1 C 0,0 km/h (0 Bft) 100 %
12.11.2016 03:00 -0,1 C -0,1 C 0,1 C 92 % 1023,7 hPa 0,0 l/m 0,0 km/h (0 Bft) N 0 0 min 0,000 mm 0 W/m -1,2 C -0,1 C 0,0 km/h (0 Bft) 100 %
12.11.2016 03:10 -0,3 C -0,3 C -0,2 C 92 % 1023,7 hPa 0,0 l/m 0,0 km/h (0 Bft) N 0 0 min 0,000 mm 0 W/m -1,4 C -0,3 C 0,0 km/h (0 Bft) 100 %
12.11.2016 03:20 -0,5 C -0,5 C -0,3 C 92 % 1023,7 hPa 0,0 l/m 0,0 km/h (0 Bft) N 0 0 min 0,000 mm 0 W/m -1,6 C -0,5 C 0,0 km/h (0 Bft) 100 %
12.11.2016 03:30 -0,7 C -0,7 C -0,5 C 92 % 1023,6 hPa 0,0 l/m 0,0 km/h (0 Bft) N 0 0 min 0,000 mm 0 W/m -1,8 C -0,7 C 0,0 km/h (0 Bft) 100 %
12.11.2016 03:40 -0,8 C -0,8 C -0,7 C 92 % 1023,5 hPa 0,0 l/m 0,0 km/h (0 Bft) N 0 0 min 0,000 mm 0 W/m -1,9 C -0,8 C 0,0 km/h (0 Bft) 100 %
12.11.2016 03:50 -1,0 C -1,0 C -0,8 C 92 % 1023,8 hPa 0,0 l/m 0,0 km/h (0 Bft) N 0 0 min 0,000 mm 0 W/m -2,1 C -1,0 C 0,0 km/h (0 Bft) 100 %
12.11.2016 04:00 -1,2 C -1,2 C -1,0 C 92 % 1023,9 hPa 0,0 l/m 0,0 km/h (0 Bft) N 0 0 min 0,000 mm 0 W/m -2,3 C -1,2 C 0,0 km/h (0 Bft) 100 %
12.11.2016 04:10 -1,3 C -1,3 C -1,2 C 92 % 1023,9 hPa 0,0 l/m 0,0 km/h (0 Bft) N 0 0 min 0,000 mm 0 W/m -2,4 C -1,3 C 0,0 km/h (0 Bft) 100 %
12.11.2016 04:20 -1,3 C -1,3 C -1,3 C 92 % 1023,8 hPa 0,0 l/m 0,0 km/h (0 Bft) N 0 0 min 0,000 mm 0 W/m -2,4 C -1,3 C 0,0 km/h (0 Bft) 100 %
12.11.2016 04:30 -1,4 C -1,4 C -1,3 C 92 % 1023,9 hPa 0,0 l/m 0,0 km/h (0 Bft) N 0 0 min 0,000 mm 0 W/m -2,5 C -1,4 C 0,0 km/h (0 Bft) 100 %
12.11.2016 04:40 -1,3 C -1,4 C -1,3 C 92 % 1023,9 hPa 0,0 l/m 0,0 km/h (0 Bft) N 0 0 min 0,000 mm 0 W/m -2,4 C -1,3 C 0,0 km/h (0 Bft) 100 %
12.11.2016 04:50 -1,2 C -1,3 C -1,2 C 92 % 1023,9 hPa 0,0 l/m 0,0 km/h (0 Bft) N 0 0 min 0,000 mm 0 W/m -2,3 C -1,2 C 0,0 km/h (0 Bft) 100 %
12.11.2016 05:00 -1,2 C -1,2 C -1,2 C 92 % 1024,1 hPa 0,0 l/m 0,0 km/h (0 Bft) N 0 0 min 0,000 mm 0 W/m -2,3 C -1,2 C 0,0 km/h (0 Bft) 100 %
12.11.2016 05:10 -1,2 C -1,2 C -1,2 C 92 % 1024,1 hPa 0,0 l/m 0,0 km/h (0 Bft) N 0 0 min 0,000 mm 0 W/m -2,3 C -1,2 C 0,0 km/h (0 Bft) 100 %
12.11.2016 05:20 -1,2 C -1,2 C -1,2 C 92 % 1024,1 hPa 0,0 l/m 0,0 km/h (0 Bft) N 0 0 min 0,000 mm 0 W/m -2,3 C -1,2 C 0,0 km/h (0 Bft) 100 %
12.11.2016 05:30 -1,2 C -1,2 C -1,2 C 92 % 1024,2 hPa 0,0 l/m 0,0 km/h (0 Bft) N 0 0 min 0,000 mm 0 W/m -2,3 C -1,2 C 0,0 km/h (0 Bft) 100 %
12.11.2016 05:40 -1,2 C -1,3 C -1,2 C 92 % 1024,1 hPa 0,0 l/m 0,0 km/h (0 Bft) N 0 0 min 0,000 mm 0 W/m -2,3 C -1,2 C 0,0 km/h (0 Bft) 91 %
12.11.2016 05:50 -1,1 C -1,2 C -1,1 C 92 % 1024,0 hPa 0,0 l/m 0,0 km/h (0 Bft) N 0 0 min 0,000 mm 0 W/m -2,2 C -1,1 C 0,0 km/h (0 Bft) 100 %
12.11.2016 06:00 -0,9 C -1,1 C -0,9 C 92 % 1024,1 hPa 0,0 l/m 0,0 km/h (0 Bft) N 0 0 min 0,000 mm 0 W/m -2,0 C -0,9 C 0,0 km/h (0 Bft) 100 %
12.11.2016 06:10 -0,8 C -0,9 C -0,8 C 92 % 1024,1 hPa 0,0 l/m 0,0 km/h (0 Bft) N 0 0 min 0,000 mm 0 W/m -1,9 C -0,8 C 0,0 km/h (0 Bft) 100 %
12.11.2016 06:20 -0,8 C -0,8 C -0,8 C 92 % 1024,1 hPa 0,0 l/m 0,0 km/h (0 Bft) N 0 0 min 0,000 mm 0 W/m -1,9 C -0,8 C 0,0 km/h (0 Bft) 100 %
12.11.2016 06:30 -0,7 C -0,8 C -0,7 C 92 % 1024,1 hPa 0,0 l/m 0,0 km/h (0 Bft) N 0 0 min 0,000 mm 0 W/m -1,8 C -0,7 C 0,0 km/h (0 Bft) 100 %
12.11.2016 06:40 -0,7 C -0,8 C -0,7 C 92 % 1024,1 hPa 0,0 l/m 0,0 km/h (0 Bft) N 0 0 min 0,000 mm 0 W/m -1,8 C -0,7 C 0,0 km/h (0 Bft) 100 %
12.11.2016 06:50 -0,7 C -0,7 C -0,7 C 92 % 1024,2 hPa 0,0 l/m 0,0 km/h (0 Bft) N 0 0 min 0,000 mm 0 W/m -1,8 C -0,7 C 0,0 km/h (0 Bft) 90 %
12.11.2016 07:00 -0,7 C -0,7 C -0,7 C 92 % 1024,2 hPa 0,0 l/m 0,0 km/h (0 Bft) N 0 0 min 0,000 mm 0 W/m -1,8 C -0,7 C 0,0 km/h (0 Bft) 100 %
12.11.2016 07:10 -0,6 C -0,7 C -0,6 C 92 % 1024,1 hPa 0,0 l/m 0,0 km/h (0 Bft) N 0 0 min 0,000 mm 0 W/m -1,7 C -0,6 C 0,0 km/h (0 Bft) 100 %
12.11.2016 07:20 -0,6 C -0,7 C -0,6 C 92 % 1024,2 hPa 0,0 l/m 0,0 km/h (0 Bft) N 0 0 min 0,000 mm 0 W/m -1,7 C -0,6 C 0,0 km/h (0 Bft) 100 %
12.11.2016 07:30 -0,7 C -0,7 C -0,6 C 92 % 1024,3 hPa 0,0 l/m 0,0 km/h (0 Bft) N 0 0 min 0,000 mm 0 W/m -1,8 C -0,7 C 0,0 km/h (0 Bft) 100 %
12.11.2016 07:40 -0,8 C -0,8 C -0,7 C 92 % 1024,4 hPa 0,0 l/m 0,0 km/h (0 Bft) N 0 0 min 0,000 mm 5 W/m -1,9 C -0,8 C 0,0 km/h (0 Bft) 100 %
12.11.2016 07:50 -0,8 C -0,8 C -0,7 C 92 % 1024,6 hPa 0,0 l/m 0,0 km/h (0 Bft) N 0 0 min 0,000 mm 12 W/m -1,9 C -0,8 C 0,0 km/h (0 Bft) 100 %
12.11.2016 08:00 -0,7 C -0,8 C -0,7 C 92 % 1024,7 hPa 0,0 l/m 0,0 km/h (0 Bft) N 0 0 min 0,000 mm 26 W/m -1,8 C -0,7 C 0,0 km/h (0 Bft) 100 %
12.11.2016 08:10 -0,6 C -0,7 C -0,6 C 92 % 1024,8 hPa 0,0 l/m 0,0 km/h (0 Bft) N 0 0 min 0,000 mm 37 W/m -1,7 C -0,6 C 0,0 km/h (0 Bft) 87 %
12.11.2016 08:20 -0,4 C -0,6 C -0,4 C 92 % 1024,9 hPa 0,0 l/m 0,0 km/h (0 Bft) N 0 0 min 0,000 mm 46 W/m -1,5 C -0,4 C 0,0 km/h (0 Bft) 100 %
12.11.2016 08:30 -0,3 C -0,5 C -0,3 C 92 % 1025,0 hPa 0,0 l/m 0,0 km/h (0 Bft) N 0 0 min 0,000 mm 54 W/m -1,4 C -0,3 C 0,0 km/h (0 Bft) 100 %
12.11.2016 08:40 -0,2 C -0,3 C -0,2 C 92 % 1025,0 hPa 0,0 l/m 0,0 km/h (0 Bft) N 0 0 min 0,000 mm 84 W/m -1,3 C -0,2 C 0,0 km/h (0 Bft) 100 %
12.11.2016 08:50 -0,1 C -0,2 C -0,1 C 92 % 1024,9 hPa 0,0 l/m 0,0 km/h (0 Bft) N 0 0 min 0,000 mm 114 W/m -1,2 C -0,1 C 0,0 km/h (0 Bft) 100 %
12.11.2016 09:00 0,0 C -0,1 C 0,0 C 92 % 1024,8 hPa 0,0 l/m 0,0 km/h (0 Bft) N 0 0 min 0,025 mm 58 W/m -1,1 C 0,0 C 0,0 km/h (0 Bft) 100 %
12.11.2016 09:10 0,1 C 0,0 C 0,1 C 92 % 1024,9 hPa 0,0 l/m 0,0 km/h (0 Bft) N 0 0 min 0,000 mm 81 W/m -1,0 C 0,1 C 0,0 km/h (0 Bft) 100 %
12.11.2016 09:20 0,2 C 0,1 C 0,2 C 92 % 1025,0 hPa 0,0 l/m 0,0 km/h (0 Bft) N 0 10 min 0,000 mm 167 W/m -0,9 C 0,2 C 0,0 km/h (0 Bft) 100 %
12.11.2016 09:30 0,4 C 0,2 C 0,4 C 92 % 1024,9 hPa 0,0 l/m 0,0 km/h (0 Bft) N 0 0 min 0,000 mm 149 W/m -0,7 C 0,4 C 0,0 km/h (0 Bft) 90 %
12.11.2016 09:40 0,6 C 0,4 C 0,6 C 92 % 1024,9 hPa 0,0 l/m 0,0 km/h (0 Bft) N 0 10 min 0,000 mm 207 W/m -0,5 C 0,6 C 0,0 km/h (0 Bft) 100 %
12.11.2016 09:50 1,0 C 0,6 C 1,0 C 92 % 1025,0 hPa 0,0 l/m 0,0 km/h (0 Bft) N 0 10 min 0,000 mm 255 W/m -0,2 C 1,0 C 0,0 km/h (0 Bft) 100 %
12.11.2016 10:00 1,4 C 1,0 C 1,4 C 92 % 1025,0 hPa 0,0 l/m 0,0 km/h (0 Bft) N 0 10 min 0,051 mm 264 W/m 0,2 C 1,4 C 0,0 km/h (0 Bft) 100 %
12.11.2016 10:10 1,8 C 1,4 C 1,8 C 92 % 1025,0 hPa 0,0 l/m 0,0 km/h (0 Bft) N 360 10 min 0,000 mm 272 W/m 0,6 C 1,8 C 1,6 km/h (1 Bft) 100 %
12.11.2016 10:20 2,3 C 1,8 C 2,3 C 92 % 1025,0 hPa 0,0 l/m 0,0 km/h (0 Bft) N 0 10 min 0,000 mm 295 W/m 1,1 C 2,3 C 0,0 km/h (0 Bft) 100 %
12.11.2016 10:30 2,4 C 2,3 C 2,4 C 91 % 1025,1 hPa 0,0 l/m 4,8 km/h (1 Bft) SO 135 10 min 0,000 mm 330 W/m 1,1 C 2,4 C 9,7 km/h (2 Bft) 100 %
12.11.2016 10:40 2,5 C 2,4 C 2,5 C 91 % 1025,1 hPa 0,0 l/m 3,2 km/h (1 Bft) SO 135 10 min 0,000 mm 394 W/m 1,2 C 2,5 C 11,3 km/h (2 Bft) 100 %
12.11.2016 10:50 2,8 C 2,5 C 2,8 C 90 % 1025,0 hPa 0,0 l/m 1,6 km/h (1 Bft) O-SO 112 10 min 0,000 mm 388 W/m 1,3 C 2,8 C 8,0 km/h (2 Bft) 100 %
12.11.2016 11:00 3,0 C 2,8 C 3,0 C 91 % 1024,9 hPa 0,0 l/m 0,0 km/h (0 Bft) SO 135 10 min 0,127 mm 374 W/m 1,7 C 3,0 C 3,2 km/h (1 Bft) 100 %
12.11.2016 11:10 3,1 C 3,0 C 3,1 C 90 % 1025,0 hPa 0,0 l/m 0,0 km/h (0 Bft) SO 135 10 min 0,000 mm 380 W/m 1,6 C 3,1 C 6,4 km/h (2 Bft) 100 %
12.11.2016 11:20 2,9 C 2,9 C 3,2 C 88 % 1024,9 hPa 0,0 l/m 0,0 km/h (0 Bft) SO 135 10 min 0,000 mm 385 W/m 1,1 C 2,9 C 1,6 km/h (1 Bft) 100 %
12.11.2016 11:30 3,1 C 2,8 C 3,1 C 90 % 1024,8 hPa 0,0 l/m 0,0 km/h (0 Bft) N 0 10 min 0,000 mm 381 W/m 1,6 C 3,1 C 0,0 km/h (0 Bft) 100 %
12.11.2016 11:40 3,4 C 3,1 C 3,4 C 88 % 1024,7 hPa 0,0 l/m 0,0 km/h (0 Bft) SO 135 10 min 0,000 mm 360 W/m 1,6 C 3,4 C 1,6 km/h (1 Bft) 100 %
12.11.2016 11:50 3,1 C 3,1 C 3,4 C 86 % 1024,6 hPa 0,0 l/m 0,0 km/h (0 Bft) SO 135 10 min 0,000 mm 202 W/m 1,0 C 3,1 C 1,6 km/h (1 Bft) 100 %
12.11.2016 12:00 2,9 C 2,9 C 3,1 C 88 % 1024,6 hPa 0,0 l/m 0,0 km/h (0 Bft) N 0 10 min 0,102 mm 459 W/m 1,1 C 2,9 C 0,0 km/h (0 Bft) 100 %
12.11.2016 12:20 3,2 C 2,9 C 3,2 C 86 % 1024,3 hPa 0,0 l/m 3,2 km/h (1 Bft) SO 133 0 min 0,000 mm 109 W/m 1,1 C 3,2 C 9,7 km/h (2 Bft) 98 %
12.11.2016 12:30 2,6 C 2,6 C 3,2 C 85 % 1024,2 hPa 0,0 l/m 4,4 km/h (1 Bft) SO 141 0 min 0,000 mm 151 W/m 0,3 C 2,6 C 11,3 km/h (2 Bft) 98 %
12.11.2016 12:40 2,6 C 2,5 C 2,6 C 86 % 1024,2 hPa 0,0 l/m 4,0 km/h (1 Bft) SO 142 10 min 0,000 mm 181 W/m 0,5 C 2,6 C 9,7 km/h (2 Bft) 97 %
12.11.2016 12:50 2,4 C 2,4 C 2,6 C 86 % 1024,2 hPa 0,0 l/m 5,0 km/h (1 Bft) SO 124 0 min 0,000 mm 135 W/m 0,3 C 2,4 C 11,3 km/h (2 Bft) 98 %
12.11.2016 13:00 2,1 C 2,1 C 2,4 C 84 % 1024,1 hPa 0,0 l/m 2,1 km/h (1 Bft) SO 125 0 min 0,076 mm 134 W/m -0,3 C 2,1 C 6,4 km/h (2 Bft) 97 %
12.11.2016 13:10 2,1 C 2,1 C 2,1 C 84 % 1024,1 hPa 0,0 l/m 1,1 km/h (1 Bft) O-SO 123 0 min 0,000 mm 142 W/m -0,3 C 2,1 C 4,8 km/h (1 Bft) 98 %
12.11.2016 13:20 2,2 C 2,1 C 2,2 C 85 % 1023,9 hPa 0,0 l/m 0,3 km/h (0 Bft) O-SO 121 10 min 0,000 mm 158 W/m -0,1 C 2,2 C 4,8 km/h (1 Bft) 99 %
12.11.2016 13:30 2,4 C 2,2 C 2,4 C 85 % 1023,9 hPa 0,0 l/m 0,1 km/h (0 Bft) O-SO 117 10 min 0,000 mm 160 W/m 0,1 C 2,4 C 3,2 km/h (1 Bft) 100 %
12.11.2016 13:40 2,7 C 2,4 C 2,7 C 84 % 1023,9 hPa 0,0 l/m 1,2 km/h (1 Bft) SO 136 10 min 0,000 mm 153 W/m 0,3 C 2,7 C 8,0 km/h (2 Bft) 100 %
12.11.2016 13:50 2,7 C 2,6 C 2,7 C 81 % 1023,9 hPa 0,0 l/m 2,7 km/h (1 Bft) O-SO 117 10 min 0,000 mm 153 W/m -0,2 C 2,7 C 8,0 km/h (2 Bft) 99 %
12.11.2016 14:00 2,8 C 2,7 C 2,8 C 81 % 1024,0 hPa 0,0 l/m 1,5 km/h (1 Bft) O-SO 119 0 min 0,051 mm 130 W/m -0,1 C 2,8 C 8,0 km/h (2 Bft) 100 %
12.11.2016 14:10 2,9 C 2,8 C 2,9 C 81 % 1024,0 hPa 0,0 l/m 0,0 km/h (0 Bft) O-SO 119 0 min 0,000 mm 127 W/m -0,0 C 2,9 C 0,0 km/h (0 Bft) 99 %
12.11.2016 14:20 2,9 C 2,9 C 2,9 C 80 % 1023,9 hPa 0,0 l/m 0,0 km/h (0 Bft) O-SO 119 0 min 0,000 mm 118 W/m -0,2 C 2,9 C 0,0 km/h (0 Bft) 100 %
12.11.2016 14:30 3,1 C 2,9 C 3,1 C 81 % 1024,0 hPa 0,0 l/m 0,0 km/h (0 Bft) SO 131 0 min 0,000 mm 111 W/m 0,2 C 3,1 C 1,6 km/h (1 Bft) 100 %
12.11.2016 14:40 3,1 C 3,0 C 3,1 C 81 % 1023,9 hPa 0,0 l/m 0,0 km/h (0 Bft) S-SO 150 0 min 0,000 mm 111 W/m 0,2 C 3,1 C 0,0 km/h (0 Bft) 100 %
12.11.2016 14:50 3,2 C 3,1 C 3,2 C 79 % 1023,9 hPa 0,0 l/m 0,0 km/h (0 Bft) S-SO 151 0 min 0,000 mm 93 W/m -0,1 C 3,2 C 0,0 km/h (0 Bft) 100 %
12.11.2016 15:00 3,1 C 3,1 C 3,2 C 79 % 1023,8 hPa 0,0 l/m 0,0 km/h (0 Bft) S-SO 153 0 min 0,051 mm 77 W/m -0,2 C 3,1 C 0,0 km/h (0 Bft) 100 %
12.11.2016 15:10 3,1 C 3,1 C 3,1 C 78 % 1023,9 hPa 0,0 l/m 0,0 km/h (0 Bft) S-SO 154 0 min 0,000 mm 58 W/m -0,4 C 3,1 C 0,0 km/h (0 Bft) 100 %
12.11.2016 15:20 3,1 C 3,1 C 3,1 C 76 % 1023,9 hPa 0,0 l/m 0,0 km/h (0 Bft) S-SO 148 0 min 0,000 mm 49 W/m -0,7 C 3,1 C 0,0 km/h (0 Bft) 100 %
12.11.2016 15:30 3,1 C 3,1 C 3,1 C 78 % 1024,0 hPa 0,0 l/m 0,0 km/h (0 Bft) S-SO 148 0 min 0,000 mm 47 W/m -0,4 C 3,1 C 0,0 km/h (0 Bft) 100 %
12.11.2016 15:40 2,9 C 2,9 C 3,1 C 79 % 1024,1 hPa 0,0 l/m 0,0 km/h (0 Bft) S-SO 148 0 min 0,000 mm 19 W/m -0,4 C 2,9 C 0,0 km/h (0 Bft) 100 %
12.11.2016 15:50 2,6 C 2,6 C 2,9 C 77 % 1023,8 hPa 0,0 l/m 0,0 km/h (0 Bft) S-SO 148 0 min 0,000 mm 26 W/m -1,0 C 2,6 C 0,0 km/h (0 Bft) 100 %
12.11.2016 16:00 2,3 C 2,3 C 2,6 C 79 % 1023,9 hPa 0,0 l/m 0,0 km/h (0 Bft) S-SO 148 0 min 0,025 mm 26 W/m -1,0 C 2,3 C 0,0 km/h (0 Bft) 100 %
12.11.2016 16:10 2,2 C 2,2 C 2,3 C 81 % 1023,9 hPa 0,0 l/m 0,0 km/h (0 Bft) S-SO 148 0 min 0,000 mm 30 W/m -0,7 C 2,2 C 0,0 km/h (0 Bft) 100 %
12.11.2016 16:20 2,2 C 2,2 C 2,2 C 80 % 1023,8 hPa 0,0 l/m 0,0 km/h (0 Bft) S-SO 148 0 min 0,000 mm 18 W/m -0,9 C 2,2 C 0,0 km/h (0 Bft) 100 %
12.11.2016 16:30 2,1 C 2,1 C 2,2 C 81 % 1023,8 hPa 0,0 l/m 0,0 km/h (0 Bft) S-SO 148 0 min 0,000 mm 5 W/m -0,8 C 2,1 C 0,0 km/h (0 Bft) 100 %
12.11.2016 16:40 1,9 C 1,9 C 2,1 C 79 % 1023,8 hPa 0,0 l/m 0,0 km/h (0 Bft) S-SO 148 0 min 0,000 mm 0 W/m -1,3 C 1,9 C 0,0 km/h (0 Bft) 100 %
12.11.2016 16:50 1,6 C 1,6 C 1,9 C 80 % 1023,9 hPa 0,0 l/m 0,0 km/h (0 Bft) S-SO 148 0 min 0,000 mm 0 W/m -1,5 C 1,6 C 0,0 km/h (0 Bft) 100 %
12.11.2016 17:00 1,2 C 1,2 C 1,6 C 82 % 1023,8 hPa 0,0 l/m 0,0 km/h (0 Bft) S-SO 148 0 min 0,000 mm 0 W/m -1,5 C 1,2 C 0,0 km/h (0 Bft) 100 %
12.11.2016 17:10 0,9 C 0,9 C 1,2 C 84 % 1023,9 hPa 0,0 l/m 0,0 km/h (0 Bft) S-SO 148 0 min 0,000 mm 0 W/m -1,5 C 0,9 C 0,0 km/h (0 Bft) 100 %
12.11.2016 17:20 0,7 C 0,7 C 0,9 C 85 % 1023,9 hPa 0,0 l/m 0,0 km/h (0 Bft) S-SO 148 0 min 0,000 mm 0 W/m -1,5 C 0,7 C 1,6 km/h (1 Bft) 100 %
12.11.2016 17:30 0,6 C 0,6 C 0,8 C 86 % 1023,9 hPa 0,0 l/m 0,0 km/h (0 Bft) S-SO 148 0 min 0,000 mm 0 W/m -1,5 C 0,6 C 0,0 km/h (0 Bft) 100 %
12.11.2016 17:40 0,5 C 0,5 C 0,6 C 87 % 1023,9 hPa 0,0 l/m 0,0 km/h (0 Bft) S-SO 148 0 min 0,000 mm 0 W/m -1,4 C 0,5 C 1,6 km/h (1 Bft) 100 %
12.11.2016 17:50 0,4 C 0,4 C 0,5 C 88 % 1024,0 hPa 0,0 l/m 0,0 km/h (0 Bft) SO 144 0 min 0,000 mm 0 W/m -1,3 C 0,4 C 3,2 km/h (1 Bft) 100 %
12.11.2016 18:00 0,4 C 0,4 C 0,4 C 89 % 1024,1 hPa 0,0 l/m 0,1 km/h (0 Bft) SO 141 0 min 0,000 mm 0 W/m -1,2 C 0,4 C 3,2 km/h (1 Bft) 92 %
12.11.2016 18:10 0,3 C 0,3 C 0,4 C 89 % 1024,1 hPa 0,0 l/m 0,1 km/h (0 Bft) SO 136 0 min 0,000 mm 0 W/m -1,3 C 0,3 C 4,8 km/h (1 Bft) 100 %
12.11.2016 18:20 0,3 C 0,3 C 0,3 C 89 % 1024,3 hPa 0,0 l/m 0,0 km/h (0 Bft) SO 136 0 min 0,000 mm 0 W/m -1,3 C 0,3 C 0,0 km/h (0 Bft) 100 %
12.11.2016 18:30 0,3 C 0,3 C 0,3 C 90 % 1024,2 hPa 0,0 l/m 0,1 km/h (0 Bft) N-NO 32 0 min 0,000 mm 0 W/m -1,1 C 0,3 C 4,8 km/h (1 Bft) 100 %
12.11.2016 18:40 0,3 C 0,3 C 0,3 C 90 % 1024,2 hPa 0,0 l/m 0,0 km/h (0 Bft) N-NO 32 0 min 0,000 mm 0 W/m -1,1 C 0,3 C 0,0 km/h (0 Bft) 100 %
12.11.2016 18:50 0,3 C 0,3 C 0,3 C 90 % 1024,2 hPa 0,0 l/m 0,0 km/h (0 Bft) N-NO 32 0 min 0,000 mm 0 W/m -1,1 C 0,3 C 0,0 km/h (0 Bft) 99 %
12.11.2016 19:00 0,2 C 0,2 C 0,3 C 90 % 1024,2 hPa 0,0 l/m 0,1 km/h (0 Bft) O-SO 122 0 min 0,000 mm 0 W/m -1,2 C 0,2 C 4,8 km/h (1 Bft) 100 %
12.11.2016 19:10 0,1 C 0,1 C 0,2 C 90 % 1024,2 hPa 0,0 l/m 0,2 km/h (0 Bft) O-SO 117 0 min 0,000 mm 0 W/m -1,3 C 0,1 C 3,2 km/h (1 Bft) 91 %
12.11.2016 19:20 0,1 C 0,1 C 0,1 C 90 % 1024,2 hPa 0,0 l/m 0,0 km/h (0 Bft) O-SO 113 0 min 0,000 mm 0 W/m -1,3 C 0,1 C 0,0 km/h (0 Bft) 100 %
12.11.2016 19:30 -0,1 C -0,1 C 0,1 C 90 % 1024,2 hPa 0,0 l/m 0,2 km/h (0 Bft) O 100 0 min 0,000 mm 0 W/m -1,5 C -0,1 C 3,2 km/h (1 Bft) 100 %
12.11.2016 19:40 -0,2 C -0,2 C -0,1 C 90 % 1024,1 hPa 0,0 l/m 0,3 km/h (0 Bft) SO 138 0 min 0,000 mm 0 W/m -1,6 C -0,2 C 4,8 km/h (1 Bft) 100 %
12.11.2016 19:50 -0,3 C -0,3 C -0,2 C 90 % 1024,2 hPa 0,0 l/m 0,3 km/h (0 Bft) N-NO 22 0 min 0,000 mm 0 W/m -1,7 C -0,3 C 6,4 km/h (2 Bft) 91 %
12.11.2016 20:00 -0,3 C -0,3 C -0,2 C 91 % 1024,2 hPa 0,0 l/m 0,1 km/h (0 Bft) N-NO 25 0 min 0,000 mm 0 W/m -1,6 C -0,3 C 3,2 km/h (1 Bft) 99 %
12.11.2016 20:10 -0,5 C -0,5 C -0,3 C 91 % 1024,3 hPa 0,0 l/m 0,0 km/h (0 Bft) N-NO 25 0 min 0,000 mm 0 W/m -1,8 C -0,5 C 0,0 km/h (0 Bft) 99 %
12.11.2016 20:20 -0,7 C -0,7 C -0,5 C 91 % 1024,4 hPa 0,0 l/m 0,0 km/h (0 Bft) N-NO 20 0 min 0,000 mm 0 W/m -2,0 C -0,7 C 0,0 km/h (0 Bft) 100 %
12.11.2016 20:30 -0,9 C -0,9 C -0,7 C 91 % 1024,5 hPa 0,0 l/m 0,0 km/h (0 Bft) N-NO 20 0 min 0,000 mm 0 W/m -2,2 C -0,9 C 0,0 km/h (0 Bft) 100 %
12.11.2016 20:40 -0,9 C -0,9 C -0,9 C 91 % 1024,4 hPa 0,0 l/m 0,1 km/h (0 Bft) N-NO 20 0 min 0,000 mm 0 W/m -2,2 C -0,9 C 3,2 km/h (1 Bft) 100 %
12.11.2016 20:50 -0,9 C -1,0 C -0,9 C 92 % 1024,4 hPa 0,0 l/m 0,0 km/h (0 Bft) N-NO 20 0 min 0,000 mm 0 W/m -2,0 C -0,9 C 0,0 km/h (0 Bft) 100 %
12.11.2016 21:00 -1,0 C -1,0 C -0,9 C 92 % 1024,3 hPa 0,0 l/m 0,0 km/h (0 Bft) N-NO 20 0 min 0,000 mm 0 W/m -2,1 C -1,0 C 0,0 km/h (0 Bft) 100 %
12.11.2016 21:10 -1,0 C -1,0 C -0,9 C 92 % 1024,2 hPa 0,0 l/m 0,0 km/h (0 Bft) N 0 0 min 0,000 mm 0 W/m -2,1 C -1,0 C 0,0 km/h (0 Bft) 100 %
12.11.2016 21:20 -1,0 C -1,0 C -1,0 C 92 % 1024,1 hPa 0,0 l/m 0,0 km/h (0 Bft) N 0 0 min 0,000 mm 0 W/m -2,1 C -1,0 C 0,0 km/h (0 Bft) 100 %
12.11.2016 21:30 -1,0 C -1,0 C -1,0 C 92 % 1024,1 hPa 0,0 l/m 0,0 km/h (0 Bft) N 0 0 min 0,000 mm 0 W/m -2,1 C -1,0 C 0,0 km/h (0 Bft) 90 %
12.11.2016 21:40 -1,1 C -1,1 C -1,0 C 92 % 1024,2 hPa 0,0 l/m 0,0 km/h (0 Bft) N 0 0 min 0,000 mm 0 W/m -2,2 C -1,1 C 0,0 km/h (0 Bft) 100 %
12.11.2016 21:50 -1,2 C -1,2 C -1,1 C 92 % 1024,1 hPa 0,0 l/m 0,0 km/h (0 Bft) N 0 0 min 0,000 mm 0 W/m -2,3 C -1,2 C 0,0 km/h (0 Bft) 100 %
12.11.2016 22:00 -1,2 C -1,2 C -1,2 C 92 % 1024,1 hPa 0,0 l/m 0,0 km/h (0 Bft) N-NO 22 0 min 0,000 mm 0 W/m -2,3 C -1,2 C 3,2 km/h (1 Bft) 100 %
12.11.2016 22:10 -1,3 C -1,3 C -1,2 C 92 % 1024,1 hPa 0,0 l/m 0,0 km/h (0 Bft) N 0 0 min 0,000 mm 0 W/m -2,4 C -1,3 C 0,0 km/h (0 Bft) 100 %
12.11.2016 22:20 -1,4 C -1,4 C -1,3 C 92 % 1024,2 hPa 0,0 l/m 0,0 km/h (0 Bft) N 0 0 min 0,000 mm 0 W/m -2,5 C -1,4 C 0,0 km/h (0 Bft) 100 %
12.11.2016 22:30 -1,4 C -1,4 C -1,4 C 92 % 1024,1 hPa 0,0 l/m 0,0 km/h (0 Bft) N 0 0 min 0,000 mm 0 W/m -2,5 C -1,4 C 0,0 km/h (0 Bft) 100 %
12.11.2016 22:40 -1,6 C -1,6 C -1,4 C 92 % 1024,2 hPa 0,0 l/m 0,0 km/h (0 Bft) N-NO 22 0 min 0,000 mm 0 W/m -2,7 C -1,6 C 3,2 km/h (1 Bft) 92 %
12.11.2016 22:50 -1,6 C -1,6 C -1,6 C 92 % 1024,2 hPa 0,0 l/m 0,0 km/h (0 Bft) N 0 0 min 0,000 mm 0 W/m -2,7 C -1,6 C 0,0 km/h (0 Bft) 100 %
12.11.2016 23:00 -1,6 C -1,7 C -1,6 C 92 % 1024,2 hPa 0,0 l/m 0,0 km/h (0 Bft) N 0 0 min 0,000 mm 0 W/m -2,7 C -1,6 C 0,0 km/h (0 Bft) 100 %
12.11.2016 23:10 -1,6 C -1,7 C -1,6 C 92 % 1024,2 hPa 0,0 l/m 0,0 km/h (0 Bft) N 0 0 min 0,000 mm 0 W/m -2,7 C -1,6 C 0,0 km/h (0 Bft) 100 %
12.11.2016 23:20 -1,6 C -1,7 C -1,6 C 92 % 1024,3 hPa 0,0 l/m 0,0 km/h (0 Bft) N 0 0 min 0,000 mm 0 W/m -2,7 C -1,6 C 0,0 km/h (0 Bft) 100 %
12.11.2016 23:30 -1,7 C -1,7 C -1,6 C 92 % 1024,2 hPa 0,0 l/m 0,0 km/h (0 Bft) N 0 0 min 0,000 mm 0 W/m -2,8 C -1,7 C 0,0 km/h (0 Bft) 100 %
12.11.2016 23:40 -1,7 C -1,7 C -1,6 C 92 % 1024,2 hPa 0,0 l/m 0,0 km/h (0 Bft) N 0 0 min 0,000 mm 0 W/m -2,8 C -1,7 C 0,0 km/h (0 Bft) 100 %
12.11.2016 23:50 -1,7 C -1,7 C -1,7 C 92 % 1024,2 hPa 0,0 l/m 0,0 km/h (0 Bft) N 0 0 min 0,000 mm 0 W/m -2,8 C -1,7 C 0,0 km/h (0 Bft) 100 %
_ Min-Zeit 23:00 23:00 23:50 15:20 00:10 - 00:00 - - - - - 23:30 23:30 00:00 08:10
Minimum _ -1,7 C -1,7 C -1,7 C 76 % 1023,1 hPa - 0,0 km/h (0 Bft) - - - - - -2,8 C -1,7 C 0,0 km/h (0 Bft) 87 %
_ Max-Zeit 11:40 11:40 11:40 00:00 10:30 00:00 12:50 - - 09:20 11:00 12:00 11:00 11:40 10:40 00:00
Maximum _ 3,4 C 3,1 C 3,4 C 92 % 1025,1 hPa 0,0 l/m 5,0 km/h
SO (1 Bft)
- - 10 min 0,127 mm 459 W/m 1,7 C 3,4 C 11,3 km/h
SO (2 Bft)
100 %
Durchschnitt _ 0,5 C 0,4 C 0,6 C 89 % 1024,1 hPa #0,0 l/m 0,3 km/h (0 Bft) SO - #3:30 h #0,508 mm 157 W/m -1,1 C 0,5 C 1,3 km/h (1 Bft) 99 %
PRIVATE WETTERSTATION BILLIGHEIM-ALLFELD - www.neckar-odenwald-wetter.de - Holger Sonntag